Jackson Mountain, Nevada
Current Conditions -  °F | °C
As of 2:56 PM on Saturday 20 Dec 2014 (Local Time) from KWMC Reporting Station
Moderate Rain Moderate Rain  
Wind Chill: 29°   Ceiling: 1900
Heat Index: 37°   Visibility: 4mi
Dew Point: 35°   Wind: 12mph
Humidity: 93%   Direction: 170°S
Pressure: 30.08"   Gusts: NA
Location:  41.5215°N, 118.961°W
Report Text: KWMC 202256Z AUTO 17010KT 4SM RA BR OVC019 03/02 A3008 RMK AO2 SLP191 P0014 T00280017
Loading
Personal Weather Stations






























Interactive Weather Map New forecast layout! Learn more

10-Day Weather Forecast

Advertisements
Track Severe Weather on mobile